sensor_id;sensor_type;location;lat;lon;timestamp;temperature;humidity
22430;DHT22;11382;48.086;11.632;2023-02-28T00:02:17;-2.60;99.90
22430;DHT22;11382;48.086;11.632;2023-02-28T00:04:45;-2.60;99.90
22430;DHT22;11382;48.086;11.632;2023-02-28T00:07:19;-2.60;99.90
22430;DHT22;11382;48.086;11.632;2023-02-28T00:09:47;-2.60;99.90
22430;DHT22;11382;48.086;11.632;2023-02-28T00:12:15;-2.70;99.90
22430;DHT22;11382;48.086;11.632;2023-02-28T00:14:43;-2.70;99.90
22430;DHT22;11382;48.086;11.632;2023-02-28T00:17:10;-2.70;99.90
22430;DHT22;11382;48.086;11.632;2023-02-28T00:19:40;-2.70;99.90
22430;DHT22;11382;48.086;11.632;2023-02-28T00:22:08;-2.70;99.90
22430;DHT22;11382;48.086;11.632;2023-02-28T00:24:35;-2.60;99.90
22430;DHT22;11382;48.086;11.632;2023-02-28T00:27:03;-2.80;99.90
22430;DHT22;11382;48.086;11.632;2023-02-28T00:29:31;-2.80;99.90
22430;DHT22;11382;48.086;11.632;2023-02-28T00:31:59;-2.80;99.90
22430;DHT22;11382;48.086;11.632;2023-02-28T00:34:27;-2.70;99.90
22430;DHT22;11382;48.086;11.632;2023-02-28T00:36:57;-2.80;99.90
22430;DHT22;11382;48.086;11.632;2023-02-28T00:39:25;-2.80;99.90
22430;DHT22;11382;48.086;11.632;2023-02-28T00:41:55;-2.80;99.90
22430;DHT22;11382;48.086;11.632;2023-02-28T00:44:23;-2.90;99.90
22430;DHT22;11382;48.086;11.632;2023-02-28T00:46:51;-2.90;99.90
22430;DHT22;11382;48.086;11.632;2023-02-28T00:49:24;-2.90;99.90
22430;DHT22;11382;48.086;11.632;2023-02-28T00:51:52;-2.90;99.90
22430;DHT22;11382;48.086;11.632;2023-02-28T00:54:22;-2.90;99.90
22430;DHT22;11382;48.086;11.632;2023-02-28T00:56:50;-2.90;99.90
22430;DHT22;11382;48.086;11.632;2023-02-28T00:59:18;-2.90;99.90
22430;DHT22;11382;48.086;11.632;2023-02-28T01:01:47;-2.90;99.90
22430;DHT22;11382;48.086;11.632;2023-02-28T01:04:15;-2.90;99.90
22430;DHT22;11382;48.086;11.632;2023-02-28T01:06:43;-3.00;99.90
22430;DHT22;11382;48.086;11.632;2023-02-28T01:09:11;-3.00;99.90
22430;DHT22;11382;48.086;11.632;2023-02-28T01:11:43;-2.90;99.90
22430;DHT22;11382;48.086;11.632;2023-02-28T01:14:12;-2.90;99.90
22430;DHT22;11382;48.086;11.632;2023-02-28T01:16:41;-3.00;99.90
22430;DHT22;11382;48.086;11.632;2023-02-28T01:19:09;-3.00;99.90
22430;DHT22;11382;48.086;11.632;2023-02-28T01:21:38;-3.00;99.90
22430;DHT22;11382;48.086;11.632;2023-02-28T01:24:06;-3.00;99.90
22430;DHT22;11382;48.086;11.632;2023-02-28T01:26:35;-3.00;99.90
22430;DHT22;11382;48.086;11.632;2023-02-28T01:29:07;-3.10;99.90
22430;DHT22;11382;48.086;11.632;2023-02-28T01:31:35;-3.10;99.90
22430;DHT22;11382;48.086;11.632;2023-02-28T01:34:03;-3.10;99.90
22430;DHT22;11382;48.086;11.632;2023-02-28T01:36:31;-3.10;99.90
22430;DHT22;11382;48.086;11.632;2023-02-28T01:38:59;-3.10;99.90
22430;DHT22;11382;48.086;11.632;2023-02-28T01:41:29;-3.10;99.90
22430;DHT22;11382;48.086;11.632;2023-02-28T01:44:02;-3.00;99.90
22430;DHT22;11382;48.086;11.632;2023-02-28T01:46:35;-3.00;99.90
22430;DHT22;11382;48.086;11.632;2023-02-28T01:49:07;-3.10;99.90
22430;DHT22;11382;48.086;11.632;2023-02-28T01:51:40;-3.10;99.90
22430;DHT22;11382;48.086;11.632;2023-02-28T01:54:15;-3.10;99.90
22430;DHT22;11382;48.086;11.632;2023-02-28T01:56:49;-3.10;99.90
22430;DHT22;11382;48.086;11.632;2023-02-28T01:59:23;-3.20;99.90
22430;DHT22;11382;48.086;11.632;2023-02-28T02:01:56;-3.10;99.90
22430;DHT22;11382;48.086;11.632;2023-02-28T02:04:27;-3.20;99.90
22430;DHT22;11382;48.086;11.632;2023-02-28T02:07:00;-3.20;99.90
22430;DHT22;11382;48.086;11.632;2023-02-28T02:09:28;-3.20;99.90
22430;DHT22;11382;48.086;11.632;2023-02-28T02:11:56;-3.20;99.90
22430;DHT22;11382;48.086;11.632;2023-02-28T02:14:34;-3.20;99.90
22430;DHT22;11382;48.086;11.632;2023-02-28T02:17:16;-3.20;99.90
22430;DHT22;11382;48.086;11.632;2023-02-28T02:20:16;-3.20;99.90
22430;DHT22;11382;48.086;11.632;2023-02-28T02:23:13;-3.20;99.90
22430;DHT22;11382;48.086;11.632;2023-02-28T02:25:53;-3.30;99.90
22430;DHT22;11382;48.086;11.632;2023-02-28T02:28:53;-3.30;99.90
22430;DHT22;11382;48.086;11.632;2023-02-28T02:32:06;-3.30;99.90
22430;DHT22;11382;48.086;11.632;2023-02-28T02:34:54;-3.40;99.90
22430;DHT22;11382;48.086;11.632;2023-02-28T02:37:31;-3.40;99.90
22430;DHT22;11382;48.086;11.632;2023-02-28T02:40:08;-3.40;99.90
22430;DHT22;11382;48.086;11.632;2023-02-28T02:42:42;-3.40;99.90
22430;DHT22;11382;48.086;11.632;2023-02-28T02:45:17;-3.40;99.90
22430;DHT22;11382;48.086;11.632;2023-02-28T02:47:48;-3.40;99.90
22430;DHT22;11382;48.086;11.632;2023-02-28T02:50:21;-3.40;99.90
22430;DHT22;11382;48.086;11.632;2023-02-28T02:52:53;-3.40;99.90
22430;DHT22;11382;48.086;11.632;2023-02-28T02:55:23;-3.50;99.90
22430;DHT22;11382;48.086;11.632;2023-02-28T02:57:54;-3.50;99.90
22430;DHT22;11382;48.086;11.632;2023-02-28T03:00:26;-3.50;99.90
22430;DHT22;11382;48.086;11.632;2023-02-28T03:02:56;-3.50;99.90
22430;DHT22;11382;48.086;11.632;2023-02-28T03:05:29;-3.50;99.90
22430;DHT22;11382;48.086;11.632;2023-02-28T03:08:03;-3.60;99.90
22430;DHT22;11382;48.086;11.632;2023-02-28T03:10:35;-3.50;99.90
22430;DHT22;11382;48.086;11.632;2023-02-28T03:16:29;-3.50;99.90
22430;DHT22;11382;48.086;11.632;2023-02-28T03:19:05;-3.50;99.90
22430;DHT22;11382;48.086;11.632;2023-02-28T03:21:40;-3.60;99.90
22430;DHT22;11382;48.086;11.632;2023-02-28T03:24:15;-3.70;99.90
22430;DHT22;11382;48.086;11.632;2023-02-28T03:26:52;-3.70;99.90
22430;DHT22;11382;48.086;11.632;2023-02-28T03:29:28;-3.60;99.90
22430;DHT22;11382;48.086;11.632;2023-02-28T03:32:00;-3.60;99.90
22430;DHT22;11382;48.086;11.632;2023-02-28T03:34:34;-3.60;99.90
22430;DHT22;11382;48.086;11.632;2023-02-28T03:37:08;-3.60;99.90
22430;DHT22;11382;48.086;11.632;2023-02-28T03:39:42;-3.60;99.90
22430;DHT22;11382;48.086;11.632;2023-02-28T03:42:13;-3.60;99.90
22430;DHT22;11382;48.086;11.632;2023-02-28T03:44:44;-3.60;99.90
22430;DHT22;11382;48.086;11.632;2023-02-28T03:47:17;-3.60;99.90
22430;DHT22;11382;48.086;11.632;2023-02-28T03:49:52;-3.50;99.90
22430;DHT22;11382;48.086;11.632;2023-02-28T03:52:27;-3.60;99.90
22430;DHT22;11382;48.086;11.632;2023-02-28T03:55:00;-3.60;99.90
22430;DHT22;11382;48.086;11.632;2023-02-28T03:57:35;-3.70;99.90
22430;DHT22;11382;48.086;11.632;2023-02-28T04:00:07;-3.70;99.90
22430;DHT22;11382;48.086;11.632;2023-02-28T04:02:40;-3.70;99.90
22430;DHT22;11382;48.086;11.632;2023-02-28T04:05:08;-3.70;99.90
22430;DHT22;11382;48.086;11.632;2023-02-28T04:07:37;-3.70;99.90
22430;DHT22;11382;48.086;11.632;2023-02-28T04:10:06;-3.60;99.90
22430;DHT22;11382;48.086;11.632;2023-02-28T04:12:34;-3.70;99.90
22430;DHT22;11382;48.086;11.632;2023-02-28T04:15:03;-3.70;99.90
22430;DHT22;11382;48.086;11.632;2023-02-28T04:17:31;-3.70;99.90
22430;DHT22;11382;48.086;11.632;2023-02-28T04:19:59;-3.70;99.90
22430;DHT22;11382;48.086;11.632;2023-02-28T04:22:27;-3.60;99.90
22430;DHT22;11382;48.086;11.632;2023-02-28T04:24:56;-3.70;99.90
22430;DHT22;11382;48.086;11.632;2023-02-28T04:27:24;-3.70;99.90
22430;DHT22;11382;48.086;11.632;2023-02-28T04:29:52;-3.70;99.90
22430;DHT22;11382;48.086;11.632;2023-02-28T04:32:20;-3.70;99.90
22430;DHT22;11382;48.086;11.632;2023-02-28T04:34:48;-3.70;99.90
22430;DHT22;11382;48.086;11.632;2023-02-28T04:37:16;-3.70;99.90
22430;DHT22;11382;48.086;11.632;2023-02-28T04:39:44;-3.70;99.90
22430;DHT22;11382;48.086;11.632;2023-02-28T04:42:13;-3.60;99.90
22430;DHT22;11382;48.086;11.632;2023-02-28T04:44:41;-3.60;99.90
22430;DHT22;11382;48.086;11.632;2023-02-28T04:47:09;-3.60;99.90
22430;DHT22;11382;48.086;11.632;2023-02-28T04:49:37;-3.70;99.90
22430;DHT22;11382;48.086;11.632;2023-02-28T04:52:05;-3.70;99.90
22430;DHT22;11382;48.086;11.632;2023-02-28T04:54:34;-3.60;99.90
22430;DHT22;11382;48.086;11.632;2023-02-28T04:57:02;-3.60;99.90
22430;DHT22;11382;48.086;11.632;2023-02-28T04:59:32;-3.60;99.90
22430;DHT22;11382;48.086;11.632;2023-02-28T05:02:00;-3.60;99.90
22430;DHT22;11382;48.086;11.632;2023-02-28T05:04:33;-3.60;99.90
22430;DHT22;11382;48.086;11.632;2023-02-28T05:07:02;-3.50;99.90
22430;DHT22;11382;48.086;11.632;2023-02-28T05:09:30;-3.50;99.90
22430;DHT22;11382;48.086;11.632;2023-02-28T05:11:59;-3.60;99.90
22430;DHT22;11382;48.086;11.632;2023-02-28T05:14:27;-3.50;99.90
22430;DHT22;11382;48.086;11.632;2023-02-28T05:16:56;-3.50;99.90
22430;DHT22;11382;48.086;11.632;2023-02-28T05:19:24;-3.50;99.90
22430;DHT22;11382;48.086;11.632;2023-02-28T05:21:53;-3.50;99.90
22430;DHT22;11382;48.086;11.632;2023-02-28T05:24:22;-3.40;99.90
22430;DHT22;11382;48.086;11.632;2023-02-28T05:26:51;-3.40;99.90
22430;DHT22;11382;48.086;11.632;2023-02-28T05:29:20;-3.40;99.90
22430;DHT22;11382;48.086;11.632;2023-02-28T05:31:48;-3.30;99.90
22430;DHT22;11382;48.086;11.632;2023-02-28T05:34:17;-3.30;99.90
22430;DHT22;11382;48.086;11.632;2023-02-28T05:36:45;-3.20;99.90
22430;DHT22;11382;48.086;11.632;2023-02-28T05:39:13;-3.20;99.90
22430;DHT22;11382;48.086;11.632;2023-02-28T05:41:42;-3.20;99.90
22430;DHT22;11382;48.086;11.632;2023-02-28T05:44:11;-3.10;99.90
22430;DHT22;11382;48.086;11.632;2023-02-28T05:46:38;-3.10;99.90
22430;DHT22;11382;48.086;11.632;2023-02-28T05:49:06;-3.10;99.90
22430;DHT22;11382;48.086;11.632;2023-02-28T05:51:36;-3.00;99.90
22430;DHT22;11382;48.086;11.632;2023-02-28T05:54:06;-2.90;99.90
22430;DHT22;11382;48.086;11.632;2023-02-28T05:56:34;-3.00;99.90
22430;DHT22;11382;48.086;11.632;2023-02-28T05:59:04;-3.00;99.90
22430;DHT22;11382;48.086;11.632;2023-02-28T06:01:34;-3.00;99.90
22430;DHT22;11382;48.086;11.632;2023-02-28T06:04:03;-2.90;99.90
22430;DHT22;11382;48.086;11.632;2023-02-28T06:06:32;-2.90;99.90
22430;DHT22;11382;48.086;11.632;2023-02-28T06:09:04;-2.90;99.90
22430;DHT22;11382;48.086;11.632;2023-02-28T06:11:33;-2.90;99.90
22430;DHT22;11382;48.086;11.632;2023-02-28T06:14:02;-2.90;99.90
22430;DHT22;11382;48.086;11.632;2023-02-28T06:16:31;-2.90;99.90
22430;DHT22;11382;48.086;11.632;2023-02-28T06:19:01;-2.90;99.90
22430;DHT22;11382;48.086;11.632;2023-02-28T06:21:29;-2.80;99.90
22430;DHT22;11382;48.086;11.632;2023-02-28T06:23:58;-2.90;99.90
22430;DHT22;11382;48.086;11.632;2023-02-28T06:26:28;-2.80;99.90
22430;DHT22;11382;48.086;11.632;2023-02-28T06:28:56;-2.80;99.90
22430;DHT22;11382;48.086;11.632;2023-02-28T06:31:24;-2.80;99.90
22430;DHT22;11382;48.086;11.632;2023-02-28T06:33:52;-2.80;99.90
22430;DHT22;11382;48.086;11.632;2023-02-28T06:36:20;-2.80;99.90
22430;DHT22;11382;48.086;11.632;2023-02-28T06:38:48;-2.80;99.90
22430;DHT22;11382;48.086;11.632;2023-02-28T06:41:22;-2.70;99.90
22430;DHT22;11382;48.086;11.632;2023-02-28T06:43:52;-2.70;99.90
22430;DHT22;11382;48.086;11.632;2023-02-28T06:46:21;-2.80;99.90
22430;DHT22;11382;48.086;11.632;2023-02-28T06:48:49;-2.70;99.90
22430;DHT22;11382;48.086;11.632;2023-02-28T06:51:19;-2.70;99.90
22430;DHT22;11382;48.086;11.632;2023-02-28T06:53:48;-2.70;99.90
22430;DHT22;11382;48.086;11.632;2023-02-28T06:56:19;-2.70;99.90
22430;DHT22;11382;48.086;11.632;2023-02-28T06:58:48;-2.60;99.90
22430;DHT22;11382;48.086;11.632;2023-02-28T07:01:18;-2.60;99.90
22430;DHT22;11382;48.086;11.632;2023-02-28T07:03:47;-2.60;99.90
22430;DHT22;11382;48.086;11.632;2023-02-28T07:06:19;-2.60;99.90
22430;DHT22;11382;48.086;11.632;2023-02-28T07:08:49;-2.60;99.90
22430;DHT22;11382;48.086;11.632;2023-02-28T07:11:17;-2.50;99.90
22430;DHT22;11382;48.086;11.632;2023-02-28T07:13:45;-2.50;99.90
22430;DHT22;11382;48.086;11.632;2023-02-28T07:16:14;-2.50;99.90
22430;DHT22;11382;48.086;11.632;2023-02-28T07:18:43;-2.50;99.90
22430;DHT22;11382;48.086;11.632;2023-02-28T07:21:11;-2.50;99.90
22430;DHT22;11382;48.086;11.632;2023-02-28T07:23:39;-2.50;99.90
22430;DHT22;11382;48.086;11.632;2023-02-28T07:26:12;-2.50;99.90
22430;DHT22;11382;48.086;11.632;2023-02-28T07:28:41;-2.40;99.90
22430;DHT22;11382;48.086;11.632;2023-02-28T07:31:10;-2.60;99.90
22430;DHT22;11382;48.086;11.632;2023-02-28T07:33:38;-2.50;99.90
22430;DHT22;11382;48.086;11.632;2023-02-28T07:36:10;-2.40;99.90
22430;DHT22;11382;48.086;11.632;2023-02-28T07:38:41;-2.40;99.90
22430;DHT22;11382;48.086;11.632;2023-02-28T07:41:14;-2.40;99.90
22430;DHT22;11382;48.086;11.632;2023-02-28T07:43:42;-2.40;99.90
22430;DHT22;11382;48.086;11.632;2023-02-28T07:46:12;-2.40;99.90
22430;DHT22;11382;48.086;11.632;2023-02-28T07:48:42;-2.30;99.90
22430;DHT22;11382;48.086;11.632;2023-02-28T07:51:11;-2.30;99.90
22430;DHT22;11382;48.086;11.632;2023-02-28T07:53:39;-2.30;99.90
22430;DHT22;11382;48.086;11.632;2023-02-28T07:56:07;-2.30;99.90
22430;DHT22;11382;48.086;11.632;2023-02-28T07:58:37;-2.30;99.90
22430;DHT22;11382;48.086;11.632;2023-02-28T08:01:05;-2.20;99.90
22430;DHT22;11382;48.086;11.632;2023-02-28T08:03:36;-2.20;99.90
22430;DHT22;11382;48.086;11.632;2023-02-28T08:06:05;-2.20;99.90
22430;DHT22;11382;48.086;11.632;2023-02-28T08:08:35;-2.30;99.90
22430;DHT22;11382;48.086;11.632;2023-02-28T08:11:03;-2.30;99.90
22430;DHT22;11382;48.086;11.632;2023-02-28T08:13:31;-2.10;99.90
22430;DHT22;11382;48.086;11.632;2023-02-28T08:16:01;-2.00;99.90
22430;DHT22;11382;48.086;11.632;2023-02-28T08:18:29;-2.00;99.90
22430;DHT22;11382;48.086;11.632;2023-02-28T08:20:57;-2.10;99.90
22430;DHT22;11382;48.086;11.632;2023-02-28T08:23:25;-2.20;99.90
22430;DHT22;11382;48.086;11.632;2023-02-28T08:25:55;-2.10;99.90
22430;DHT22;11382;48.086;11.632;2023-02-28T08:28:23;-2.10;99.90
22430;DHT22;11382;48.086;11.632;2023-02-28T08:30:53;-2.10;99.90
22430;DHT22;11382;48.086;11.632;2023-02-28T08:33:21;-2.00;99.90
22430;DHT22;11382;48.086;11.632;2023-02-28T08:35:52;-2.10;99.90
22430;DHT22;11382;48.086;11.632;2023-02-28T08:38:20;-2.20;99.90
22430;DHT22;11382;48.086;11.632;2023-02-28T08:40:48;-2.20;99.90
22430;DHT22;11382;48.086;11.632;2023-02-28T08:43:18;-2.10;99.90
22430;DHT22;11382;48.086;11.632;2023-02-28T08:45:46;-2.10;99.90
22430;DHT22;11382;48.086;11.632;2023-02-28T08:48:14;-2.00;99.90
22430;DHT22;11382;48.086;11.632;2023-02-28T08:50:53;-2.00;99.90
22430;DHT22;11382;48.086;11.632;2023-02-28T08:53:32;-2.00;99.90
22430;DHT22;11382;48.086;11.632;2023-02-28T08:56:03;-1.80;99.90
22430;DHT22;11382;48.086;11.632;2023-02-28T08:58:33;-1.90;99.90
22430;DHT22;11382;48.086;11.632;2023-02-28T09:01:07;-1.80;99.90
22430;DHT22;11382;48.086;11.632;2023-02-28T09:03:35;-1.60;99.90
22430;DHT22;11382;48.086;11.632;2023-02-28T09:06:04;-1.70;99.90
22430;DHT22;11382;48.086;11.632;2023-02-28T09:08:32;-1.70;99.90
22430;DHT22;11382;48.086;11.632;2023-02-28T09:11:00;-1.70;99.90
22430;DHT22;11382;48.086;11.632;2023-02-28T09:13:30;-1.70;99.90
22430;DHT22;11382;48.086;11.632;2023-02-28T09:16:02;-1.50;99.90
22430;DHT22;11382;48.086;11.632;2023-02-28T09:18:30;-1.40;99.90
22430;DHT22;11382;48.086;11.632;2023-02-28T09:20:58;-1.30;99.90
22430;DHT22;11382;48.086;11.632;2023-02-28T09:23:26;-1.20;99.90
22430;DHT22;11382;48.086;11.632;2023-02-28T09:25:54;-1.20;99.90
22430;DHT22;11382;48.086;11.632;2023-02-28T09:28:23;-1.20;99.90
22430;DHT22;11382;48.086;11.632;2023-02-28T09:30:53;-1.40;99.90
22430;DHT22;11382;48.086;11.632;2023-02-28T09:33:23;-1.20;99.90
22430;DHT22;11382;48.086;11.632;2023-02-28T09:35:56;-1.20;99.90
22430;DHT22;11382;48.086;11.632;2023-02-28T09:38:25;-1.30;99.90
22430;DHT22;11382;48.086;11.632;2023-02-28T09:40:56;-1.40;99.90
22430;DHT22;11382;48.086;11.632;2023-02-28T09:43:28;-1.30;99.90
22430;DHT22;11382;48.086;11.632;2023-02-28T09:46:00;-1.20;99.90
22430;DHT22;11382;48.086;11.632;2023-02-28T09:48:34;-1.30;99.90
22430;DHT22;11382;48.086;11.632;2023-02-28T09:51:14;-1.30;99.90
22430;DHT22;11382;48.086;11.632;2023-02-28T09:53:43;-1.40;99.90
22430;DHT22;11382;48.086;11.632;2023-02-28T09:56:20;-1.40;99.90
22430;DHT22;11382;48.086;11.632;2023-02-28T09:58:56;-1.30;99.90
22430;DHT22;11382;48.086;11.632;2023-02-28T10:01:27;-1.20;99.90
22430;DHT22;11382;48.086;11.632;2023-02-28T10:04:04;-1.10;99.90
22430;DHT22;11382;48.086;11.632;2023-02-28T10:06:36;-0.80;99.90
22430;DHT22;11382;48.086;11.632;2023-02-28T10:09:10;-0.90;99.90
22430;DHT22;11382;48.086;11.632;2023-02-28T10:11:40;-0.90;99.90
22430;DHT22;11382;48.086;11.632;2023-02-28T10:14:14;-1.10;99.90
22430;DHT22;11382;48.086;11.632;2023-02-28T10:16:45;-1.00;99.90
22430;DHT22;11382;48.086;11.632;2023-02-28T10:19:23;-1.00;99.90
22430;DHT22;11382;48.086;11.632;2023-02-28T10:21:57;-1.10;99.90
22430;DHT22;11382;48.086;11.632;2023-02-28T10:24:28;-1.10;99.90
22430;DHT22;11382;48.086;11.632;2023-02-28T10:27:00;-0.90;99.90
22430;DHT22;11382;48.086;11.632;2023-02-28T10:29:31;-0.80;99.90
22430;DHT22;11382;48.086;11.632;2023-02-28T10:32:02;-0.70;99.90
22430;DHT22;11382;48.086;11.632;2023-02-28T10:34:32;-0.80;99.90
22430;DHT22;11382;48.086;11.632;2023-02-28T10:37:00;-0.70;99.90
22430;DHT22;11382;48.086;11.632;2023-02-28T10:39:39;-0.70;99.90
22430;DHT22;11382;48.086;11.632;2023-02-28T10:42:21;-0.70;99.90
22430;DHT22;11382;48.086;11.632;2023-02-28T10:45:12;-0.80;99.90
22430;DHT22;11382;48.086;11.632;2023-02-28T10:47:49;-0.70;99.90
22430;DHT22;11382;48.086;11.632;2023-02-28T10:50:31;-0.50;99.90
22430;DHT22;11382;48.086;11.632;2023-02-28T10:53:16;-0.20;99.90
22430;DHT22;11382;48.086;11.632;2023-02-28T10:55:45;-0.10;99.90
22430;DHT22;11382;48.086;11.632;2023-02-28T10:58:22;-0.10;99.90
22430;DHT22;11382;48.086;11.632;2023-02-28T11:00:51;-0.10;99.90
22430;DHT22;11382;48.086;11.632;2023-02-28T11:03:32;0.30;99.90
22430;DHT22;11382;48.086;11.632;2023-02-28T11:06:06;0.60;99.90
22430;DHT22;11382;48.086;11.632;2023-02-28T11:08:44;0.70;99.90
22430;DHT22;11382;48.086;11.632;2023-02-28T11:11:14;0.40;99.90
22430;DHT22;11382;48.086;11.632;2023-02-28T11:13:44;0.60;99.90
22430;DHT22;11382;48.086;11.632;2023-02-28T11:16:14;0.50;99.90
22430;DHT22;11382;48.086;11.632;2023-02-28T11:18:47;0.70;99.90
22430;DHT22;11382;48.086;11.632;2023-02-28T11:21:21;1.00;99.90
22430;DHT22;11382;48.086;11.632;2023-02-28T11:23:52;0.90;99.90
22430;DHT22;11382;48.086;11.632;2023-02-28T11:26:40;0.80;99.90
22430;DHT22;11382;48.086;11.632;2023-02-28T11:29:20;1.00;99.90
22430;DHT22;11382;48.086;11.632;2023-02-28T11:32:05;1.00;99.90
22430;DHT22;11382;48.086;11.632;2023-02-28T11:34:37;1.10;99.90
22430;DHT22;11382;48.086;11.632;2023-02-28T11:37:12;1.00;99.90
22430;DHT22;11382;48.086;11.632;2023-02-28T11:39:40;1.20;99.90
22430;DHT22;11382;48.086;11.632;2023-02-28T11:42:27;1.10;99.90
22430;DHT22;11382;48.086;11.632;2023-02-28T11:45:07;1.30;99.90
22430;DHT22;11382;48.086;11.632;2023-02-28T11:47:44;1.20;99.90
22430;DHT22;11382;48.086;11.632;2023-02-28T11:50:24;1.40;99.90
22430;DHT22;11382;48.086;11.632;2023-02-28T11:52:59;1.80;99.90
22430;DHT22;11382;48.086;11.632;2023-02-28T11:55:32;2.10;99.90
22430;DHT22;11382;48.086;11.632;2023-02-28T11:58:17;2.20;99.90
22430;DHT22;11382;48.086;11.632;2023-02-28T12:01:01;2.00;99.90
22430;DHT22;11382;48.086;11.632;2023-02-28T12:03:40;2.20;99.90
22430;DHT22;11382;48.086;11.632;2023-02-28T12:06:18;2.10;99.90
22430;DHT22;11382;48.086;11.632;2023-02-28T12:08:58;2.60;99.90
22430;DHT22;11382;48.086;11.632;2023-02-28T12:11:36;2.90;99.90
22430;DHT22;11382;48.086;11.632;2023-02-28T12:14:24;2.70;99.90
22430;DHT22;11382;48.086;11.632;2023-02-28T12:17:00;2.00;99.90
22430;DHT22;11382;48.086;11.632;2023-02-28T12:19:39;2.40;99.90
22430;DHT22;11382;48.086;11.632;2023-02-28T12:22:20;2.40;99.90
22430;DHT22;11382;48.086;11.632;2023-02-28T12:25:05;2.20;99.90
22430;DHT22;11382;48.086;11.632;2023-02-28T12:27:41;2.40;99.90
22430;DHT22;11382;48.086;11.632;2023-02-28T12:30:17;2.40;99.90
22430;DHT22;11382;48.086;11.632;2023-02-28T12:32:49;2.60;99.90
22430;DHT22;11382;48.086;11.632;2023-02-28T12:35:22;2.50;99.90
22430;DHT22;11382;48.086;11.632;2023-02-28T12:37:55;2.40;99.90
22430;DHT22;11382;48.086;11.632;2023-02-28T12:40:41;2.50;99.90
22430;DHT22;11382;48.086;11.632;2023-02-28T12:43:13;2.80;99.90
22430;DHT22;11382;48.086;11.632;2023-02-28T12:45:45;2.70;99.90
22430;DHT22;11382;48.086;11.632;2023-02-28T12:48:17;2.70;99.90
22430;DHT22;11382;48.086;11.632;2023-02-28T12:50:48;2.70;99.90
22430;DHT22;11382;48.086;11.632;2023-02-28T12:53:23;2.90;99.90
22430;DHT22;11382;48.086;11.632;2023-02-28T12:56:02;3.00;99.90
22430;DHT22;11382;48.086;11.632;2023-02-28T12:58:36;2.70;99.90
22430;DHT22;11382;48.086;11.632;2023-02-28T13:01:28;2.90;99.90
22430;DHT22;11382;48.086;11.632;2023-02-28T13:07:20;2.80;99.90
22430;DHT22;11382;48.086;11.632;2023-02-28T13:09:52;2.80;99.90
22430;DHT22;11382;48.086;11.632;2023-02-28T13:12:23;2.70;99.90
22430;DHT22;11382;48.086;11.632;2023-02-28T13:15:03;2.70;99.90
22430;DHT22;11382;48.086;11.632;2023-02-28T13:17:32;3.00;99.90
22430;DHT22;11382;48.086;11.632;2023-02-28T13:20:00;3.00;99.90
22430;DHT22;11382;48.086;11.632;2023-02-28T13:22:47;2.80;99.90
22430;DHT22;11382;48.086;11.632;2023-02-28T13:32:27;2.70;99.90
22430;DHT22;11382;48.086;11.632;2023-02-28T13:35:32;2.40;99.90
22430;DHT22;11382;48.086;11.632;2023-02-28T13:38:36;2.40;99.90
22430;DHT22;11382;48.086;11.632;2023-02-28T13:44:16;2.40;99.90
22430;DHT22;11382;48.086;11.632;2023-02-28T13:47:24;2.40;99.90
22430;DHT22;11382;48.086;11.632;2023-02-28T13:50:15;2.60;99.90
22430;DHT22;11382;48.086;11.632;2023-02-28T13:52:55;2.80;99.90
22430;DHT22;11382;48.086;11.632;2023-02-28T13:55:29;2.90;99.90
22430;DHT22;11382;48.086;11.632;2023-02-28T13:58:10;2.70;99.90
22430;DHT22;11382;48.086;11.632;2023-02-28T14:01:05;2.60;99.90
22430;DHT22;11382;48.086;11.632;2023-02-28T14:03:51;2.60;99.90
22430;DHT22;11382;48.086;11.632;2023-02-28T14:06:25;2.80;99.90
22430;DHT22;11382;48.086;11.632;2023-02-28T14:08:58;2.70;99.90
22430;DHT22;11382;48.086;11.632;2023-02-28T14:11:30;2.80;99.90
22430;DHT22;11382;48.086;11.632;2023-02-28T14:13:59;2.80;99.90
22430;DHT22;11382;48.086;11.632;2023-02-28T14:16:36;2.90;99.90
22430;DHT22;11382;48.086;11.632;2023-02-28T14:19:12;3.10;99.90
22430;DHT22;11382;48.086;11.632;2023-02-28T14:21:50;3.10;99.90
22430;DHT22;11382;48.086;11.632;2023-02-28T14:24:51;3.00;99.90
22430;DHT22;11382;48.086;11.632;2023-02-28T14:27:32;3.00;99.90
22430;DHT22;11382;48.086;11.632;2023-02-28T14:30:26;3.10;99.90
22430;DHT22;11382;48.086;11.632;2023-02-28T14:33:10;3.10;99.90
22430;DHT22;11382;48.086;11.632;2023-02-28T14:35:54;3.10;99.90
22430;DHT22;11382;48.086;11.632;2023-02-28T14:38:25;3.00;99.90
22430;DHT22;11382;48.086;11.632;2023-02-28T14:40:57;3.00;99.90
22430;DHT22;11382;48.086;11.632;2023-02-28T14:43:27;3.00;99.90
22430;DHT22;11382;48.086;11.632;2023-02-28T14:45:58;3.10;99.90
22430;DHT22;11382;48.086;11.632;2023-02-28T14:48:27;3.10;99.90
22430;DHT22;11382;48.086;11.632;2023-02-28T14:50:59;3.30;99.90
22430;DHT22;11382;48.086;11.632;2023-02-28T14:53:30;3.00;99.90
22430;DHT22;11382;48.086;11.632;2023-02-28T14:55:58;3.00;99.90
22430;DHT22;11382;48.086;11.632;2023-02-28T14:58:28;3.20;99.90
22430;DHT22;11382;48.086;11.632;2023-02-28T15:01:00;3.00;99.90
22430;DHT22;11382;48.086;11.632;2023-02-28T15:03:32;2.90;99.90
22430;DHT22;11382;48.086;11.632;2023-02-28T15:06:03;2.80;99.90
22430;DHT22;11382;48.086;11.632;2023-02-28T15:08:32;2.70;99.90
22430;DHT22;11382;48.086;11.632;2023-02-28T15:11:04;2.70;99.90
22430;DHT22;11382;48.086;11.632;2023-02-28T15:13:39;2.70;99.90
22430;DHT22;11382;48.086;11.632;2023-02-28T15:16:11;2.70;99.90
22430;DHT22;11382;48.086;11.632;2023-02-28T15:18:44;2.80;99.90
22430;DHT22;11382;48.086;11.632;2023-02-28T15:21:16;2.80;99.90
22430;DHT22;11382;48.086;11.632;2023-02-28T15:23:48;2.90;99.90
22430;DHT22;11382;48.086;11.632;2023-02-28T15:26:20;2.90;99.90
22430;DHT22;11382;48.086;11.632;2023-02-28T15:28:50;2.80;99.90
22430;DHT22;11382;48.086;11.632;2023-02-28T15:31:22;2.80;99.90
22430;DHT22;11382;48.086;11.632;2023-02-28T15:33:55;2.80;99.90
22430;DHT22;11382;48.086;11.632;2023-02-28T15:36:29;2.80;99.90
22430;DHT22;11382;48.086;11.632;2023-02-28T15:38:59;2.80;99.90
22430;DHT22;11382;48.086;11.632;2023-02-28T15:41:41;2.80;99.90
22430;DHT22;11382;48.086;11.632;2023-02-28T15:44:17;2.80;99.90
22430;DHT22;11382;48.086;11.632;2023-02-28T15:46:55;2.80;99.90
22430;DHT22;11382;48.086;11.632;2023-02-28T15:49:24;2.80;99.90
22430;DHT22;11382;48.086;11.632;2023-02-28T15:51:55;2.80;99.90
22430;DHT22;11382;48.086;11.632;2023-02-28T15:54:28;2.80;99.90
22430;DHT22;11382;48.086;11.632;2023-02-28T15:57:05;2.70;99.90
22430;DHT22;11382;48.086;11.632;2023-02-28T15:59:36;2.80;99.90
22430;DHT22;11382;48.086;11.632;2023-02-28T16:02:14;2.80;99.90
22430;DHT22;11382;48.086;11.632;2023-02-28T16:04:58;2.80;99.90
22430;DHT22;11382;48.086;11.632;2023-02-28T16:07:28;2.70;99.90
22430;DHT22;11382;48.086;11.632;2023-02-28T16:09:56;2.60;99.90
22430;DHT22;11382;48.086;11.632;2023-02-28T16:12:26;2.60;99.90